Time;durP1;ratioP1;P1;durP2;ratioP2;P2;SDS_P1;SDS_P2;PMS_P1;PMS_P2;Temp;Humidity;BMP_temperature;BMP_pressure;BME280_temperature;BME280_humidity;BME280_pressure;Samples;Min_cycle;Max_cycle;Signal;HPM_P1;HPM_P2
2023/12/17 00:00:38;;;;;;;;;;;;;;;19.63;35.60;97791.16;10455247;28;2213;-49
2023/12/17 00:05:38;;;;;;;;;;;;;;;19.60;35.59;97785.53;10456351;28;2106;-50
2023/12/17 00:10:38;;;;;;;;;;;;;;;19.58;35.62;97795.47;10460255;28;2346;-52
2023/12/17 00:15:39;;;;;;;;;;;;;;;19.57;35.53;97799.13;10454008;28;1967;-49
2023/12/17 00:20:40;;;;;;;;;;;;;;;19.53;35.59;97805.84;10456439;28;2055;-51
2023/12/17 00:25:40;;;;;;;;;;;;;;;19.52;35.54;97801.59;10451069;28;2032;-52
2023/12/17 00:30:40;;;;;;;;;;;;;;;19.50;35.45;97807.06;10454739;28;2223;-52
2023/12/17 00:35:40;;;;;;;;;;;;;;;19.46;35.66;97801.44;10461922;28;2153;-50
2023/12/17 00:40:41;;;;;;;;;;;;;;;19.45;35.80;97799.81;10451798;28;1924;-52
2023/12/17 00:45:41;;;;;;;;;;;;;;;19.44;35.70;97797.41;10450808;28;4894;-52
2023/12/17 00:50:41;;;;;;;;;;;;;;;19.43;35.85;97795.81;10419963;28;2445;-54
2023/12/17 00:55:42;;;;;;;;;;;;;;;19.41;35.76;97801.28;10461008;28;2130;-50
2023/12/17 01:00:42;;;;;;;;;;;;;;;19.39;35.87;97792.81;10450795;28;2270;-50
2023/12/17 01:05:42;;;;;;;;;;;;;;;19.38;35.72;97807.00;10456064;28;2104;-52
2023/12/17 01:10:43;;;;;;;;;;;;;;;19.35;35.79;97804.78;10446686;28;2090;-51
2023/12/17 01:15:43;;;;;;;;;;;;;;;19.33;35.50;97819.97;10450745;28;2086;-46
2023/12/17 01:20:43;;;;;;;;;;;;;;;19.31;35.86;97829.88;10450697;28;2125;-50
2023/12/17 01:25:44;;;;;;;;;;;;;;;19.30;35.93;97841.41;10450748;28;2104;-48
2023/12/17 01:30:44;;;;;;;;;;;;;;;19.28;35.83;97848.72;10452018;28;2043;-52
2023/12/17 01:35:44;;;;;;;;;;;;;;;19.26;35.65;97842.06;10448999;28;2059;-53
2023/12/17 01:40:44;;;;;;;;;;;;;;;19.25;35.68;97841.25;10447753;28;2129;-54
2023/12/17 01:45:45;;;;;;;;;;;;;;;19.22;35.57;97848.78;10447812;28;4973;-53
2023/12/17 01:50:45;;;;;;;;;;;;;;;19.20;36.11;97845.53;10449713;28;2214;-52
2023/12/17 01:55:45;;;;;;;;;;;;;;;19.19;35.83;97852.63;10456248;28;2195;-50
2023/12/17 02:00:46;;;;;;;;;;;;;;;19.16;36.17;97850.44;10454782;28;2130;-50
2023/12/17 02:05:46;;;;;;;;;;;;;;;19.14;36.08;97868.25;10454240;28;2063;-51
2023/12/17 02:10:47;;;;;;;;;;;;;;;19.13;36.38;97868.44;10445598;28;2067;-51
2023/12/17 02:15:47;;;;;;;;;;;;;;;19.11;36.19;97876.53;10448460;28;2616;-52
2023/12/17 02:20:47;;;;;;;;;;;;;;;19.09;35.97;97867.25;10461527;28;2034;-51
2023/12/17 02:25:47;;;;;;;;;;;;;;;19.08;36.54;97868.28;10445320;28;2144;-52
2023/12/17 02:30:48;;;;;;;;;;;;;;;19.05;36.42;97861.63;10448716;28;2070;-48
2023/12/17 02:35:48;;;;;;;;;;;;;;;19.03;36.29;97868.91;10447272;28;2101;-48
2023/12/17 02:40:48;;;;;;;;;;;;;;;19.02;35.98;97867.28;10448961;28;2193;-53
2023/12/17 02:45:49;;;;;;;;;;;;;;;19.00;36.15;97858.81;10447969;28;5187;-52
2023/12/17 02:50:49;;;;;;;;;;;;;;;18.99;36.15;97841.47;10445651;28;2105;-52
2023/12/17 02:55:49;;;;;;;;;;;;;;;18.98;36.20;97839.03;10446571;28;2347;-51
2023/12/17 03:00:49;;;;;;;;;;;;;;;18.94;36.49;97833.38;10446719;28;2121;-48
2023/12/17 03:05:50;;;;;;;;;;;;;;;18.93;36.27;97834.44;10449732;28;2038;-50
2023/12/17 03:10:50;;;;;;;;;;;;;;;18.92;36.45;97824.13;10440889;28;2085;-50
2023/12/17 03:15:50;;;;;;;;;;;;;;;18.91;36.28;97823.31;10446314;28;2173;-54
2023/12/17 03:20:50;;;;;;;;;;;;;;;18.89;36.54;97819.28;10432698;28;2084;-52
2023/12/17 03:25:51;;;;;;;;;;;;;;;18.86;36.45;97807.38;10452835;28;2213;-48
2023/12/17 03:30:51;;;;;;;;;;;;;;;18.85;36.67;97810.22;10439117;28;2086;-51
2023/12/17 03:35:52;;;;;;;;;;;;;;;18.84;35.94;97817.28;10452428;28;2078;-51
2023/12/17 03:40:52;;;;;;;;;;;;;;;18.81;36.11;97823.00;10453880;28;2070;-55
2023/12/17 03:45:52;;;;;;;;;;;;;;;18.81;36.17;97816.91;10454114;28;5148;-51
2023/12/17 03:50:52;;;;;;;;;;;;;;;18.79;36.23;97818.94;10451729;28;2043;-51
2023/12/17 03:55:53;;;;;;;;;;;;;;;18.77;36.39;97819.19;10452817;28;2130;-52
2023/12/17 04:00:53;;;;;;;;;;;;;;;18.76;36.15;97822.81;10439432;28;2318;-53
2023/12/17 04:05:53;;;;;;;;;;;;;;;18.74;36.50;97822.22;10456570;28;1990;-51
2023/12/17 04:10:56;;;;;;;;;;;;;;;18.73;36.29;97815.38;10448153;28;2039;-51
2023/12/17 04:15:56;;;;;;;;;;;;;;;18.71;36.61;97796.38;10453440;28;2121;-52
2023/12/17 04:20:56;;;;;;;;;;;;;;;18.68;36.35;97786.28;10453623;28;2175;-52
2023/12/17 04:25:57;;;;;;;;;;;;;;;18.66;35.95;97781.25;10449007;28;2138;-54
2023/12/17 04:30:57;;;;;;;;;;;;;;;18.65;36.00;97765.69;10450070;28;2191;-49
2023/12/17 04:35:57;;;;;;;;;;;;;;;18.63;36.04;97742.25;10433463;28;7339;-49
2023/12/17 04:40:57;;;;;;;;;;;;;;;18.62;36.02;97729.34;10451875;28;5231;-50
2023/12/17 04:45:58;;;;;;;;;;;;;;;18.59;36.14;97730.56;10448886;28;2058;-52
2023/12/17 04:50:58;;;;;;;;;;;;;;;18.59;36.07;97727.94;10451807;28;4734;-53
2023/12/17 04:55:58;;;;;;;;;;;;;;;18.57;36.14;97737.84;10451619;28;1959;-50
2023/12/17 05:00:59;;;;;;;;;;;;;;;18.56;36.01;97735.44;10451441;28;2074;-51
2023/12/17 05:05:59;;;;;;;;;;;;;;;18.53;36.50;97743.75;10452099;28;2112;-53
2023/12/17 05:10:59;;;;;;;;;;;;;;;18.55;36.79;97736.47;10453933;28;5317;-51
2023/12/17 05:16:00;;;;;;;;;;;;;;;18.59;36.68;97735.00;10445576;28;2370;-51
2023/12/17 05:21:00;;;;;;;;;;;;;;;18.67;36.92;97734.75;10450275;28;2353;-51
2023/12/17 05:26:00;;;;;;;;;;;;;;;18.76;36.64;97728.22;10445255;28;2373;-49
2023/12/17 05:31:00;;;;;;;;;;;;;;;18.84;36.70;97737.66;10449753;28;2117;-50
2023/12/17 05:36:02;;;;;;;;;;;;;;;18.91;36.83;97755.00;10448187;28;2083;-51
2023/12/17 05:41:02;;;;;;;;;;;;;;;18.96;36.77;97744.63;10450230;28;6374;-54
2023/12/17 05:46:03;;;;;;;;;;;;;;;19.01;36.96;97747.44;10450865;28;2110;-47
2023/12/17 05:51:06;;;;;;;;;;;;;;;19.05;36.81;97738.09;10437414;28;1988;-48
2023/12/17 05:56:06;;;;;;;;;;;;;;;19.11;36.57;97731.97;10448987;28;2114;-51
2023/12/17 06:01:07;;;;;;;;;;;;;;;19.17;36.49;97732.91;10434301;28;2198;-53
2023/12/17 06:06:07;;;;;;;;;;;;;;;19.18;36.38;97737.97;10451060;28;2184;-53
2023/12/17 06:11:07;;;;;;;;;;;;;;;19.21;36.44;97728.84;10447203;28;2055;-52
2023/12/17 06:16:08;;;;;;;;;;;;;;;19.23;36.40;97732.84;10458781;28;2050;-53
2023/12/17 06:21:09;;;;;;;;;;;;;;;19.25;36.04;97741.34;10446566;28;2126;-52
2023/12/17 06:26:09;;;;;;;;;;;;;;;19.28;36.19;97737.47;10456465;28;2028;-53
2023/12/17 06:31:09;;;;;;;;;;;;;;;19.28;36.22;97743.53;10449647;28;2216;-51
2023/12/17 06:36:09;;;;;;;;;;;;;;;19.30;36.03;97749.38;10443782;28;2126;-52
2023/12/17 06:41:10;;;;;;;;;;;;;;;19.32;35.95;97751.78;10448001;28;4878;-53
2023/12/17 06:46:14;;;;;;;;;;;;;;;19.33;35.85;97758.69;10428602;28;2091;-51
2023/12/17 06:51:15;;;;;;;;;;;;;;;19.34;36.01;97755.03;10447543;28;1951;-53
2023/12/17 06:56:16;;;;;;;;;;;;;;;19.35;35.93;97757.44;10455711;28;2062;-52
2023/12/17 07:01:16;;;;;;;;;;;;;;;19.35;35.84;97744.28;10454906;28;2046;-47
2023/12/17 07:06:16;;;;;;;;;;;;;;;19.36;35.83;97753.81;10457418;28;2226;-49
2023/12/17 07:11:17;;;;;;;;;;;;;;;19.39;35.75;97753.34;10452186;28;2070;-52
2023/12/17 07:16:23;;;;;;;;;;;;;;;19.38;35.23;97759.66;10455024;28;2272;-51
2023/12/17 07:21:24;;;;;;;;;;;;;;;19.41;35.12;97766.31;10464107;28;2218;-50
2023/12/17 07:26:24;;;;;;;;;;;;;;;19.41;35.43;97753.94;10450293;28;2016;-52
2023/12/17 07:31:24;;;;;;;;;;;;;;;19.43;35.05;97759.78;10452025;28;2145;-50
2023/12/17 07:36:25;;;;;;;;;;;;;;;19.44;34.84;97750.06;10453340;28;2086;-48
2023/12/17 07:41:25;;;;;;;;;;;;;;;19.43;34.70;97753.75;10454186;28;4899;-49
2023/12/17 07:46:25;;;;;;;;;;;;;;;19.45;35.12;97751.69;10454285;28;1999;-52
2023/12/17 07:51:25;;;;;;;;;;;;;;;19.47;34.56;97752.28;10451540;28;2135;-50
2023/12/17 07:56:26;;;;;;;;;;;;;;;19.47;34.82;97744.41;10451300;28;2460;-50
2023/12/17 08:01:27;;;;;;;;;;;;;;;19.48;34.76;97749.44;10448752;28;2172;-47
2023/12/17 08:06:27;;;;;;;;;;;;;;;19.51;34.41;97755.28;10449686;28;2196;-50
2023/12/17 08:11:28;;;;;;;;;;;;;;;19.53;34.09;97761.13;10453228;28;2121;-54
2023/12/17 08:16:28;;;;;;;;;;;;;;;19.52;34.14;97762.13;10450532;28;2007;-50
2023/12/17 08:21:28;;;;;;;;;;;;;;;19.54;34.16;97758.25;10452137;28;2161;-51
2023/12/17 08:26:28;;;;;;;;;;;;;;;19.56;34.19;97761.47;10451862;28;2092;-49
2023/12/17 08:31:29;;;;;;;;;;;;;;;19.58;34.27;97767.31;10450031;28;2050;-50
2023/12/17 08:36:29;;;;;;;;;;;;;;;19.59;34.14;97776.03;10450443;28;2106;-49
2023/12/17 08:41:31;;;;;;;;;;;;;;;19.61;35.37;97781.88;10438992;28;5950;-49
2023/12/17 08:46:31;;;;;;;;;;;;;;;19.69;34.31;97779.75;10450106;28;2235;-51
2023/12/17 08:51:31;;;;;;;;;;;;;;;19.71;34.52;97771.66;10451214;28;2133;-49
2023/12/17 08:56:32;;;;;;;;;;;;;;;19.73;34.62;97769.59;10448537;28;2244;-50
2023/12/17 09:01:32;;;;;;;;;;;;;;;19.74;34.83;97764.09;10450337;28;2051;-52
2023/12/17 09:06:40;;;;;;;;;;;;;;;19.81;34.94;97759.59;10430606;28;2061;-52
2023/12/17 09:11:41;;;;;;;;;;;;;;;19.85;34.86;97752.84;10455147;28;2078;-57
2023/12/17 09:16:41;;;;;;;;;;;;;;;19.87;34.90;97750.00;10456086;28;2342;-56
2023/12/17 09:21:41;;;;;;;;;;;;;;;19.88;35.06;97752.44;10446174;28;2094;-51
2023/12/17 09:26:41;;;;;;;;;;;;;;;19.91;35.20;97759.06;10432212;28;2116;-51
2023/12/17 09:31:42;;;;;;;;;;;;;;;19.93;35.77;97759.63;10448813;28;2098;-56
2023/12/17 09:36:42;;;;;;;;;;;;;;;19.98;35.79;97751.91;10431385;28;2184;-53
2023/12/17 09:41:42;;;;;;;;;;;;;;;19.99;35.43;97745.63;10445695;28;5990;-56
2023/12/17 09:46:43;;;;;;;;;;;;;;;20.02;34.77;97758.31;10447823;28;2081;-55
2023/12/17 09:51:44;;;;;;;;;;;;;;;20.02;35.21;97758.31;10449737;28;2077;-56
2023/12/17 09:56:47;;;;;;;;;;;;;;;20.01;35.48;97757.50;10431893;28;2112;-53
2023/12/17 10:01:48;;;;;;;;;;;;;;;20.04;35.57;97751.00;10448582;28;2123;-55
2023/12/17 10:06:48;;;;;;;;;;;;;;;20.08;35.14;97757.44;10449652;28;2086;-53
2023/12/17 10:11:48;;;;;;;;;;;;;;;20.09;35.84;97759.06;10438172;28;2035;-56
2023/12/17 10:16:49;;;;;;;;;;;;;;;20.15;36.02;97752.91;10457844;28;2017;-52
2023/12/17 10:21:50;;;;;;;;;;;;;;;20.16;35.60;97741.31;10450313;28;2357;-54
2023/12/17 10:26:50;;;;;;;;;;;;;;;20.16;36.08;97730.78;10445760;28;2054;-56
2023/12/17 10:31:50;;;;;;;;;;;;;;;20.14;35.71;97731.03;10456325;28;2035;-55
2023/12/17 10:36:51;;;;;;;;;;;;;;;20.17;35.30;97727.16;10471137;28;2114;-54
2023/12/17 10:41:51;;;;;;;;;;;;;;;20.16;35.64;97723.72;10454661;28;4987;-55
2023/12/17 10:46:51;;;;;;;;;;;;;;;20.16;36.00;97713.19;10467777;28;2066;-52
2023/12/17 10:51:52;;;;;;;;;;;;;;;20.20;35.72;97717.00;10453981;28;2471;-54
2023/12/17 10:56:53;;;;;;;;;;;;;;;20.23;35.74;97710.50;10437101;28;2150;-54
2023/12/17 11:01:54;;;;;;;;;;;;;;;20.25;35.50;97703.16;10453248;28;1978;-53
2023/12/17 11:06:54;;;;;;;;;;;;;;;20.26;35.92;97699.50;10451291;28;3382;-54
2023/12/17 11:11:54;;;;;;;;;;;;;;;20.30;35.94;97690.13;10464917;28;2978;-51
2023/12/17 11:16:55;;;;;;;;;;;;;;;20.32;35.93;97689.91;10451423;28;2750;-53
2023/12/17 11:21:55;;;;;;;;;;;;;;;20.32;36.21;97693.31;10461849;28;2508;-54
2023/12/17 11:26:55;;;;;;;;;;;;;;;20.34;36.21;97667.56;10462557;28;2026;-53
2023/12/17 11:31:55;;;;;;;;;;;;;;;20.35;36.00;97656.00;10437576;28;2075;-56
2023/12/17 11:36:56;;;;;;;;;;;;;;;20.35;36.12;97647.31;10462988;28;2139;-53
2023/12/17 11:41:56;;;;;;;;;;;;;;;20.38;35.91;97658.19;10460585;28;5050;-54
2023/12/17 11:52:35;;;;;;;;;;;;;;;20.39;36.23;97651.91;10426552;28;4576;-55
2023/12/17 11:57:35;;;;;;;;;;;;;;;20.42;35.90;97648.81;10455149;28;2133;-52
2023/12/17 12:02:35;;;;;;;;;;;;;;;20.43;36.23;97636.44;10433220;28;2306;-52
2023/12/17 12:07:36;;;;;;;;;;;;;;;20.47;36.12;97638.38;10453212;28;1991;-54
2023/12/17 12:12:36;;;;;;;;;;;;;;;20.48;36.15;97637.38;10454345;28;2035;-50
2023/12/17 12:17:40;;;;;;;;;;;;;;;20.47;36.56;97627.84;10452514;28;1967;-53
2023/12/17 12:22:45;;;;;;;;;;;;;;;20.47;36.25;97609.41;10454409;28;2074;-52
2023/12/17 12:27:45;;;;;;;;;;;;;;;20.48;36.64;97600.50;10451896;28;2070;-52
2023/12/17 12:32:46;;;;;;;;;;;;;;;20.51;36.01;97601.84;10449208;28;2269;-51
2023/12/17 12:37:46;;;;;;;;;;;;;;;20.50;36.29;97603.69;10416648;28;2097;-50
2023/12/17 12:42:46;;;;;;;;;;;;;;;20.53;36.18;97608.50;10450143;28;5115;-53
2023/12/17 12:47:47;;;;;;;;;;;;;;;20.54;36.32;97604.03;10451851;28;3142;-56
2023/12/17 12:52:47;;;;;;;;;;;;;;;20.56;36.94;97588.81;10448357;28;2061;-54
2023/12/17 12:57:48;;;;;;;;;;;;;;;20.59;36.39;97575.97;10433315;28;2110;-54
2023/12/17 13:02:48;;;;;;;;;;;;;;;20.61;36.06;97560.72;10448330;28;2287;-55
2023/12/17 13:07:48;;;;;;;;;;;;;;;20.60;36.10;97555.69;10449607;28;2158;-53
2023/12/17 13:12:49;;;;;;;;;;;;;;;20.60;35.99;97559.13;10438526;28;2057;-54
2023/12/17 13:17:58;;;;;;;;;;;;;;;20.61;36.20;97558.09;10484009;27;2670;-52
2023/12/17 13:22:58;;;;;;;;;;;;;;;20.61;36.09;97550.19;10482411;28;2068;-52
2023/12/17 13:27:58;;;;;;;;;;;;;;;20.62;36.00;97551.81;10481004;28;2028;-52
2023/12/17 13:33:03;;;;;;;;;;;;;;;20.60;35.94;97551.25;10480965;28;2268;-52
2023/12/17 13:38:04;;;;;;;;;;;;;;;20.58;36.21;97532.22;10481569;28;1992;-50
2023/12/17 13:43:04;;;;;;;;;;;;;;;20.59;35.94;97535.63;10481323;28;5152;-51
2023/12/17 13:48:05;;;;;;;;;;;;;;;20.54;35.95;97530.28;10481582;28;3079;-54
2023/12/17 13:53:05;;;;;;;;;;;;;;;20.47;36.24;97529.56;10482233;28;2131;-54
2023/12/17 13:58:06;;;;;;;;;;;;;;;20.47;35.98;97522.47;10484183;28;2060;-54
2023/12/17 14:03:06;;;;;;;;;;;;;;;20.39;36.04;97522.84;10477639;28;2241;-52
2023/12/17 14:08:06;;;;;;;;;;;;;;;20.33;36.00;97518.47;10478782;28;2099;-53
2023/12/17 14:13:07;;;;;;;;;;;;;;;20.28;36.17;97516.53;10480386;28;2080;-51
2023/12/17 14:18:07;;;;;;;;;;;;;;;20.27;35.98;97528.13;10528049;28;2055;-51
2023/12/17 14:23:08;;;;;;;;;;;;;;;20.23;36.17;97515.63;10509177;28;2182;-51
2023/12/17 14:28:08;;;;;;;;;;;;;;;20.22;36.08;97520.09;10500910;28;2119;-54
2023/12/17 14:33:08;;;;;;;;;;;;;;;20.23;36.42;97515.63;10488193;28;2186;-54
2023/12/17 14:38:09;;;;;;;;;;;;;;;20.19;36.66;97504.75;10489196;28;2344;-51
2023/12/17 14:43:09;;;;;;;;;;;;;;;20.18;37.25;97505.75;10492020;28;5064;-52
2023/12/17 14:48:10;;;;;;;;;;;;;;;20.21;38.14;97496.63;10487865;28;2088;-54
2023/12/17 14:53:10;;;;;;;;;;;;;;;20.25;38.05;97498.56;10491565;28;2017;-53
2023/12/17 14:58:12;;;;;;;;;;;;;;;20.28;37.61;97503.38;10491673;28;2344;-53
2023/12/17 15:03:12;;;;;;;;;;;;;;;20.31;36.94;97499.47;10493907;28;2082;-54
2023/12/17 15:08:14;;;;;;;;;;;;;;;20.31;37.63;97504.75;10491097;28;2172;-53
2023/12/17 15:13:15;;;;;;;;;;;;;;;20.30;37.43;97508.41;10493781;28;2080;-53
2023/12/17 15:18:15;;;;;;;;;;;;;;;20.31;37.18;97504.75;10493017;28;2216;-51
2023/12/17 15:23:15;;;;;;;;;;;;;;;20.30;37.21;97503.13;10474960;28;2036;-52
2023/12/17 15:28:16;;;;;;;;;;;;;;;20.32;36.65;97495.81;10477706;28;2052;-54
2023/12/17 15:33:16;;;;;;;;;;;;;;;20.30;37.04;97505.75;10472695;28;2127;-53
2023/12/17 15:38:16;;;;;;;;;;;;;;;20.33;36.45;97507.13;10494290;28;2072;-50
2023/12/17 15:43:16;;;;;;;;;;;;;;;20.30;36.66;97505.75;10490609;28;2068;-53
2023/12/17 15:48:17;;;;;;;;;;;;;;;20.32;36.35;97506.34;10492428;28;2110;-53
2023/12/17 15:53:17;;;;;;;;;;;;;;;20.31;36.46;97504.75;10486383;28;2072;-53
2023/12/17 15:58:18;;;;;;;;;;;;;;;20.31;36.08;97510.00;10488235;28;2059;-52
2023/12/17 16:03:18;;;;;;;;;;;;;;;20.31;36.70;97512.66;10493676;28;2060;-52
2023/12/17 16:08:18;;;;;;;;;;;;;;;20.38;36.81;97512.53;10493318;28;2208;-52
2023/12/17 16:13:19;;;;;;;;;;;;;;;20.39;36.95;97517.56;10490944;28;2391;-47
2023/12/17 16:18:19;;;;;;;;;;;;;;;20.46;36.72;97526.16;10490947;28;2236;-55
2023/12/17 16:23:19;;;;;;;;;;;;;;;20.53;35.78;97533.91;10486461;28;1993;-50
2023/12/17 16:28:20;;;;;;;;;;;;;;;20.57;36.60;97535.88;10502195;28;2160;-54
2023/12/17 16:33:20;;;;;;;;;;;;;;;20.65;36.13;97532.88;10521706;28;1917;-53
2023/12/17 16:38:20;;;;;;;;;;;;;;;20.67;36.09;97530.81;10520246;28;1483;-54
2023/12/17 16:43:21;;;;;;;;;;;;;;;20.71;35.62;97537.22;10515742;28;6066;-54
2023/12/17 16:48:22;;;;;;;;;;;;;;;20.75;35.44;97535.72;10515941;28;1784;-52
2023/12/17 16:53:22;;;;;;;;;;;;;;;20.78;35.89;97535.28;10497101;28;1905;-53
2023/12/17 16:58:22;;;;;;;;;;;;;;;20.80;35.26;97535.84;10514608;28;1642;-55
2023/12/17 17:03:23;;;;;;;;;;;;;;;20.81;35.33;97539.28;10522616;28;2502;-53
2023/12/17 17:08:23;;;;;;;;;;;;;;;20.85;35.15;97535.16;10516250;28;1581;-55
2023/12/17 17:13:24;;;;;;;;;;;;;;;20.86;35.46;97531.47;10505898;28;1976;-52
2023/12/17 17:18:25;;;;;;;;;;;;;;;20.84;35.08;97526.44;10434409;28;1507;-51
2023/12/17 17:23:27;;;;;;;;;;;;;;;20.86;35.08;97529.66;10423223;28;1897;-54
2023/12/17 17:28:27;;;;;;;;;;;;;;;20.87;35.23;97531.28;10398977;28;2116;-53
2023/12/17 17:33:27;;;;;;;;;;;;;;;20.89;35.00;97537.09;10398897;28;2186;-54
2023/12/17 17:38:27;;;;;;;;;;;;;;;20.91;35.08;97537.69;10397962;28;1964;-54
2023/12/17 17:43:28;;;;;;;;;;;;;;;20.91;35.08;97537.69;10395148;28;5142;-52
2023/12/17 17:48:31;;;;;;;;;;;;;;;20.93;35.12;97537.44;10395906;28;2251;-53
2023/12/17 17:53:32;;;;;;;;;;;;;;;20.94;34.67;97531.91;10392652;28;2117;-53
2023/12/17 17:58:32;;;;;;;;;;;;;;;20.93;34.95;97532.97;10394899;28;2316;-54
2023/12/17 18:03:33;;;;;;;;;;;;;;;20.93;35.12;97540.88;10401717;28;2128;-53
2023/12/17 18:08:33;;;;;;;;;;;;;;;20.94;34.75;97528.47;10401460;28;2072;-54
2023/12/17 18:13:34;;;;;;;;;;;;;;;20.96;34.60;97524.59;10421137;28;2089;-53
2023/12/17 18:18:35;;;;;;;;;;;;;;;20.97;34.29;97517.47;10496604;28;2177;-53
2023/12/17 18:23:38;;;;;;;;;;;;;;;20.99;35.08;97516.22;10491394;28;2079;-54
2023/12/17 18:28:38;;;;;;;;;;;;;;;21.01;34.69;97518.63;10491567;28;2025;-53
2023/12/17 18:33:39;;;;;;;;;;;;;;;21.00;34.69;97509.91;10463761;28;2176;-54
2023/12/17 18:38:44;;;;;;;;;;;;;;;20.98;34.39;97517.25;10478651;28;2090;-53
2023/12/17 18:43:45;;;;;;;;;;;;;;;21.01;35.21;97516.78;10465034;28;4955;-53
2023/12/17 18:48:47;;;;;;;;;;;;;;;21.03;34.74;97508.66;10473876;28;2117;-53
2023/12/17 18:53:48;;;;;;;;;;;;;;;21.05;34.24;97506.59;10483000;28;2252;-53
2023/12/17 18:58:48;;;;;;;;;;;;;;;21.05;34.58;97504.78;10465360;28;1904;-53
2023/12/17 19:03:49;;;;;;;;;;;;;;;21.07;34.51;97499.25;10494172;28;1997;-53
2023/12/17 19:08:50;;;;;;;;;;;;;;;21.05;35.63;97499.50;10510631;28;1925;-54
2023/12/17 19:13:51;;;;;;;;;;;;;;;21.13;34.58;97502.78;10476795;28;2038;-55
2023/12/17 19:18:52;;;;;;;;;;;;;;;21.07;34.38;97496.63;10506385;28;1876;-52
2023/12/17 19:23:53;;;;;;;;;;;;;;;21.10;35.81;97498.81;10490840;28;1873;-54
2023/12/17 19:28:54;;;;;;;;;;;;;;;21.10;35.60;97498.00;10495041;28;1937;-55
2023/12/17 19:33:57;;;;;;;;;;;;;;;21.08;34.41;97501.66;10484589;28;2021;-52
2023/12/17 19:38:58;;;;;;;;;;;;;;;21.06;34.31;97497.66;10465542;28;1911;-53
2023/12/17 19:43:59;;;;;;;;;;;;;;;21.03;34.28;97493.66;10474902;28;4939;-54
2023/12/17 19:49:00;;;;;;;;;;;;;;;21.05;33.92;97496.84;10478884;28;1998;-53
2023/12/17 19:54:00;;;;;;;;;;;;;;;21.02;34.25;97497.31;10492420;28;2268;-54
2023/12/17 19:59:04;;;;;;;;;;;;;;;21.19;33.78;97491.28;10489648;28;1554;-54
2023/12/17 20:04:05;;;;;;;;;;;;;;;21.29;33.56;97492.28;10502974;28;1511;-54
2023/12/17 20:09:06;;;;;;;;;;;;;;;21.38;33.37;97493.50;10495125;28;1645;-53
2023/12/17 20:14:06;;;;;;;;;;;;;;;21.56;33.07;97490.66;10517297;28;1906;-52
2023/12/17 20:19:07;;;;;;;;;;;;;;;21.57;32.99;97486.19;10526609;28;1473;-52
2023/12/17 20:24:07;;;;;;;;;;;;;;;21.68;32.72;97490.59;10513467;28;1424;-53
2023/12/17 20:29:08;;;;;;;;;;;;;;;21.70;33.17;97483.25;10497100;28;1557;-55
2023/12/17 20:34:08;;;;;;;;;;;;;;;21.75;33.22;97501.78;10486496;28;1914;-51
2023/12/17 20:39:08;;;;;;;;;;;;;;;21.69;33.15;97494.84;10516604;28;1499;-51
2023/12/17 20:44:09;;;;;;;;;;;;;;;21.69;32.76;97494.84;10496255;28;5906;-54
2023/12/17 20:49:09;;;;;;;;;;;;;;;21.66;33.08;97497.94;10522052;28;2439;-50
2023/12/17 20:54:09;;;;;;;;;;;;;;;21.44;33.76;97505.75;10515388;28;1918;-51
2023/12/17 20:59:10;;;;;;;;;;;;;;;21.32;33.76;97514.75;10519531;28;1547;-53
2023/12/17 21:04:11;;;;;;;;;;;;;;;21.24;33.69;97501.94;10515629;28;1637;-52
2023/12/17 21:09:13;;;;;;;;;;;;;;;21.11;33.89;97510.13;10518697;28;1430;-49
2023/12/17 21:14:13;;;;;;;;;;;;;;;21.05;33.79;97496.84;10498969;28;1981;-52
2023/12/17 21:19:13;;;;;;;;;;;;;;;20.89;34.35;97497.56;10519777;28;1767;-52
2023/12/17 21:24:14;;;;;;;;;;;;;;;20.82;35.21;97493.44;10509635;28;1498;-53
2023/12/17 21:29:14;;;;;;;;;;;;;;;20.74;34.89;97497.25;10506710;28;2410;-51
2023/12/17 21:34:14;;;;;;;;;;;;;;;20.67;35.08;97507.09;10519711;28;1913;-54
2023/12/17 21:39:15;;;;;;;;;;;;;;;20.60;34.96;97511.72;10502558;28;1514;-55
2023/12/17 21:44:15;;;;;;;;;;;;;;;20.56;35.50;97512.41;10509492;28;5111;-52
2023/12/17 21:49:15;;;;;;;;;;;;;;;20.47;35.80;97509.31;10527935;28;1752;-54
2023/12/17 21:54:15;;;;;;;;;;;;;;;20.45;35.20;97515.84;10521383;28;1946;-53
2023/12/17 21:59:16;;;;;;;;;;;;;;;20.41;35.21;97507.59;10498828;28;1884;-51
2023/12/17 22:04:16;;;;;;;;;;;;;;;20.36;35.83;97507.47;10512492;28;1817;-53
2023/12/17 22:09:16;;;;;;;;;;;;;;;20.34;35.47;97508.75;10501764;28;2173;-55
2023/12/17 22:14:17;;;;;;;;;;;;;;;20.30;35.67;97504.97;10490429;28;2340;-53
2023/12/17 22:19:17;;;;;;;;;;;;;;;20.26;35.60;97508.06;10521401;28;1918;-51
2023/12/17 22:24:17;;;;;;;;;;;;;;;20.23;35.56;97520.88;10514376;28;2231;-52
2023/12/17 22:29:17;;;;;;;;;;;;;;;20.19;35.59;97510.03;10521012;28;1865;-51
2023/12/17 22:34:18;;;;;;;;;;;;;;;20.17;35.58;97519.16;10516619;28;2061;-51
2023/12/17 22:39:18;;;;;;;;;;;;;;;20.14;35.54;97524.84;10498434;28;2040;-51
2023/12/17 22:44:19;;;;;;;;;;;;;;;20.12;35.71;97538.25;10513857;28;5072;-54
2023/12/17 22:49:20;;;;;;;;;;;;;;;20.08;35.57;97529.22;10515769;28;1884;-54
2023/12/17 22:54:20;;;;;;;;;;;;;;;20.04;35.90;97533.31;10517068;28;1906;-54
2023/12/17 22:59:20;;;;;;;;;;;;;;;20.02;36.01;97530.13;10499697;28;1965;-53
2023/12/17 23:04:22;;;;;;;;;;;;;;;20.00;35.78;97532.16;10517556;28;2033;-53
2023/12/17 23:09:22;;;;;;;;;;;;;;;19.96;36.13;97532.84;10513264;28;1868;-53
2023/12/17 23:14:22;;;;;;;;;;;;;;;19.93;36.05;97523.56;10519170;28;2000;-52
2023/12/17 23:19:22;;;;;;;;;;;;;;;19.91;35.92;97523.00;10514019;28;1867;-52
2023/12/17 23:24:23;;;;;;;;;;;;;;;19.91;35.75;97530.06;10511050;28;2328;-53
2023/12/17 23:29:26;;;;;;;;;;;;;;;19.89;35.84;97535.56;10497152;28;2063;-53
2023/12/17 23:34:26;;;;;;;;;;;;;;;19.85;36.08;97530.97;10497722;28;2050;-53
2023/12/17 23:39:27;;;;;;;;;;;;;;;19.83;36.06;97528.59;10508584;28;2251;-52
2023/12/17 23:44:27;;;;;;;;;;;;;;;19.82;35.94;97520.94;10518515;28;5119;-55
2023/12/17 23:49:27;;;;;;;;;;;;;;;19.77;35.97;97511.06;10519746;28;3238;-52
2023/12/17 23:54:28;;;;;;;;;;;;;;;19.78;36.06;97502.16;10510249;28;2096;-53
2023/12/17 23:59:28;;;;;;;;;;;;;;;19.75;36.03;97493.91;10510352;28;1964;-55
